sensor_id;sensor_type;location;lat;lon;timestamp;temperature;humidity
52943;DHT22;38809;53.300;6.614;2023-04-15T00:01:12;5.30;99.90
52943;DHT22;38809;53.300;6.614;2023-04-15T00:03:43;5.50;99.90
52943;DHT22;38809;53.300;6.614;2023-04-15T00:06:09;5.30;99.90
52943;DHT22;38809;53.300;6.614;2023-04-15T00:08:34;5.20;99.90
52943;DHT22;38809;53.300;6.614;2023-04-15T00:11:00;5.20;99.90
52943;DHT22;38809;53.300;6.614;2023-04-15T00:13:30;5.30;99.90
52943;DHT22;38809;53.300;6.614;2023-04-15T00:15:55;5.30;99.90
52943;DHT22;38809;53.300;6.614;2023-04-15T00:18:21;5.10;99.90
52943;DHT22;38809;53.300;6.614;2023-04-15T00:20:47;5.20;99.90
52943;DHT22;38809;53.300;6.614;2023-04-15T00:23:12;5.40;99.90
52943;DHT22;38809;53.300;6.614;2023-04-15T00:25:38;5.30;99.90
52943;DHT22;38809;53.300;6.614;2023-04-15T00:28:04;5.20;99.90
52943;DHT22;38809;53.300;6.614;2023-04-15T00:30:29;5.10;99.90
52943;DHT22;38809;53.300;6.614;2023-04-15T00:32:55;5.20;99.90
52943;DHT22;38809;53.300;6.614;2023-04-15T00:35:21;5.60;99.90
52943;DHT22;38809;53.300;6.614;2023-04-15T00:37:48;5.20;99.90
52943;DHT22;38809;53.300;6.614;2023-04-15T00:40:13;5.30;99.90
52943;DHT22;38809;53.300;6.614;2023-04-15T00:42:41;5.20;99.90
52943;DHT22;38809;53.300;6.614;2023-04-15T00:45:07;5.40;99.90
52943;DHT22;38809;53.300;6.614;2023-04-15T00:47:33;5.40;99.90
52943;DHT22;38809;53.300;6.614;2023-04-15T00:49:59;5.60;99.90
52943;DHT22;38809;53.300;6.614;2023-04-15T00:52:25;5.50;99.90
52943;DHT22;38809;53.300;6.614;2023-04-15T00:54:51;5.30;99.90
52943;DHT22;38809;53.300;6.614;2023-04-15T00:57:18;5.50;99.90
52943;DHT22;38809;53.300;6.614;2023-04-15T00:59:43;5.30;99.90
52943;DHT22;38809;53.300;6.614;2023-04-15T01:02:09;5.70;99.90
52943;DHT22;38809;53.300;6.614;2023-04-15T01:04:34;5.50;99.90
52943;DHT22;38809;53.300;6.614;2023-04-15T01:07:00;5.20;99.90
52943;DHT22;38809;53.300;6.614;2023-04-15T01:09:26;5.10;99.90
52943;DHT22;38809;53.300;6.614;2023-04-15T01:11:52;5.70;99.90
52943;DHT22;38809;53.300;6.614;2023-04-15T01:14:18;5.60;99.90
52943;DHT22;38809;53.300;6.614;2023-04-15T01:16:43;5.10;99.90
52943;DHT22;38809;53.300;6.614;2023-04-15T01:19:10;5.30;99.90
52943;DHT22;38809;53.300;6.614;2023-04-15T01:21:36;5.30;99.90
52943;DHT22;38809;53.300;6.614;2023-04-15T01:24:04;5.60;99.90
52943;DHT22;38809;53.300;6.614;2023-04-15T01:26:33;5.40;99.90
52943;DHT22;38809;53.300;6.614;2023-04-15T01:28:58;5.10;99.90
52943;DHT22;38809;53.300;6.614;2023-04-15T01:31:24;5.30;99.90
52943;DHT22;38809;53.300;6.614;2023-04-15T01:33:50;5.10;99.90
52943;DHT22;38809;53.300;6.614;2023-04-15T01:36:15;5.10;99.90
52943;DHT22;38809;53.300;6.614;2023-04-15T01:38:41;5.00;99.90
52943;DHT22;38809;53.300;6.614;2023-04-15T01:41:06;5.10;99.90
52943;DHT22;38809;53.300;6.614;2023-04-15T01:43:33;5.10;99.90
52943;DHT22;38809;53.300;6.614;2023-04-15T01:45:58;5.20;99.90
52943;DHT22;38809;53.300;6.614;2023-04-15T01:48:24;5.20;99.90
52943;DHT22;38809;53.300;6.614;2023-04-15T01:50:51;5.20;99.90
52943;DHT22;38809;53.300;6.614;2023-04-15T01:53:16;5.20;99.90
52943;DHT22;38809;53.300;6.614;2023-04-15T01:55:42;5.30;99.90
52943;DHT22;38809;53.300;6.614;2023-04-15T01:58:08;5.40;99.90
52943;DHT22;38809;53.300;6.614;2023-04-15T02:00:33;5.40;99.90
52943;DHT22;38809;53.300;6.614;2023-04-15T02:02:59;5.30;99.90
52943;DHT22;38809;53.300;6.614;2023-04-15T02:05:25;5.30;99.90
52943;DHT22;38809;53.300;6.614;2023-04-15T02:07:50;5.20;99.90
52943;DHT22;38809;53.300;6.614;2023-04-15T02:10:16;5.40;99.90
52943;DHT22;38809;53.300;6.614;2023-04-15T02:12:42;5.00;99.90
52943;DHT22;38809;53.300;6.614;2023-04-15T02:15:07;4.90;99.90
52943;DHT22;38809;53.300;6.614;2023-04-15T02:17:34;5.00;99.90
52943;DHT22;38809;53.300;6.614;2023-04-15T02:20:00;5.10;99.90
52943;DHT22;38809;53.300;6.614;2023-04-15T02:22:26;4.70;99.90
52943;DHT22;38809;53.300;6.614;2023-04-15T02:24:52;5.10;99.90
52943;DHT22;38809;53.300;6.614;2023-04-15T02:27:17;5.00;99.90
52943;DHT22;38809;53.300;6.614;2023-04-15T02:29:43;5.10;99.90
52943;DHT22;38809;53.300;6.614;2023-04-15T02:32:10;5.50;99.90
52943;DHT22;38809;53.300;6.614;2023-04-15T02:34:36;4.90;99.90
52943;DHT22;38809;53.300;6.614;2023-04-15T02:37:09;5.10;99.90
52943;DHT22;38809;53.300;6.614;2023-04-15T02:39:34;4.80;99.90
52943;DHT22;38809;53.300;6.614;2023-04-15T02:42:00;4.80;99.90
52943;DHT22;38809;53.300;6.614;2023-04-15T02:44:26;4.40;99.90
52943;DHT22;38809;53.300;6.614;2023-04-15T02:46:52;4.90;99.90
52943;DHT22;38809;53.300;6.614;2023-04-15T02:49:19;4.40;99.90
52943;DHT22;38809;53.300;6.614;2023-04-15T02:51:45;4.40;99.90
52943;DHT22;38809;53.300;6.614;2023-04-15T02:54:19;4.50;99.90
52943;DHT22;38809;53.300;6.614;2023-04-15T02:56:47;4.80;99.90
52943;DHT22;38809;53.300;6.614;2023-04-15T02:59:12;4.60;99.90
52943;DHT22;38809;53.300;6.614;2023-04-15T03:01:38;4.60;99.90
52943;DHT22;38809;53.300;6.614;2023-04-15T03:04:04;4.40;99.90
52943;DHT22;38809;53.300;6.614;2023-04-15T03:06:29;4.70;99.90
52943;DHT22;38809;53.300;6.614;2023-04-15T03:08:55;5.40;99.90
52943;DHT22;38809;53.300;6.614;2023-04-15T03:11:21;4.50;99.90
52943;DHT22;38809;53.300;6.614;2023-04-15T03:13:47;4.70;99.90
52943;DHT22;38809;53.300;6.614;2023-04-15T03:16:12;4.40;99.90
52943;DHT22;38809;53.300;6.614;2023-04-15T03:18:38;4.30;99.90
52943;DHT22;38809;53.300;6.614;2023-04-15T03:21:03;4.30;99.90
52943;DHT22;38809;53.300;6.614;2023-04-15T03:23:29;4.60;99.90
52943;DHT22;38809;53.300;6.614;2023-04-15T03:25:55;4.40;99.90
52943;DHT22;38809;53.300;6.614;2023-04-15T03:28:22;4.70;99.90
52943;DHT22;38809;53.300;6.614;2023-04-15T03:30:48;4.30;99.90
52943;DHT22;38809;53.300;6.614;2023-04-15T03:33:13;4.50;99.90
52943;DHT22;38809;53.300;6.614;2023-04-15T03:35:39;4.40;99.90
52943;DHT22;38809;53.300;6.614;2023-04-15T03:38:04;5.00;99.90
52943;DHT22;38809;53.300;6.614;2023-04-15T03:40:30;4.40;99.90
52943;DHT22;38809;53.300;6.614;2023-04-15T03:42:55;5.10;99.90
52943;DHT22;38809;53.300;6.614;2023-04-15T03:45:21;4.40;99.90
52943;DHT22;38809;53.300;6.614;2023-04-15T03:47:46;4.60;99.90
52943;DHT22;38809;53.300;6.614;2023-04-15T03:50:12;4.60;99.90
52943;DHT22;38809;53.300;6.614;2023-04-15T03:52:38;4.30;99.90
52943;DHT22;38809;53.300;6.614;2023-04-15T03:55:03;4.30;99.90
52943;DHT22;38809;53.300;6.614;2023-04-15T03:57:29;4.40;99.90
52943;DHT22;38809;53.300;6.614;2023-04-15T03:59:55;4.70;99.90
52943;DHT22;38809;53.300;6.614;2023-04-15T04:02:21;4.40;99.90
52943;DHT22;38809;53.300;6.614;2023-04-15T04:04:47;4.40;99.90
52943;DHT22;38809;53.300;6.614;2023-04-15T04:07:16;5.00;99.90
52943;DHT22;38809;53.300;6.614;2023-04-15T04:09:42;4.40;99.90
52943;DHT22;38809;53.300;6.614;2023-04-15T04:12:07;5.20;99.90
52943;DHT22;38809;53.300;6.614;2023-04-15T04:14:33;4.80;99.90
52943;DHT22;38809;53.300;6.614;2023-04-15T04:16:58;4.80;99.90
52943;DHT22;38809;53.300;6.614;2023-04-15T04:19:24;4.70;99.90
52943;DHT22;38809;53.300;6.614;2023-04-15T04:21:50;4.60;99.90
52943;DHT22;38809;53.300;6.614;2023-04-15T04:24:16;4.40;99.90
52943;DHT22;38809;53.300;6.614;2023-04-15T04:26:42;4.70;99.90
52943;DHT22;38809;53.300;6.614;2023-04-15T04:29:07;4.60;99.90
52943;DHT22;38809;53.300;6.614;2023-04-15T04:31:33;5.00;99.90
52943;DHT22;38809;53.300;6.614;2023-04-15T04:33:58;4.40;99.90
52943;DHT22;38809;53.300;6.614;2023-04-15T04:36:24;4.40;99.90
52943;DHT22;38809;53.300;6.614;2023-04-15T04:38:50;4.80;99.90
52943;DHT22;38809;53.300;6.614;2023-04-15T04:41:16;4.70;99.90
52943;DHT22;38809;53.300;6.614;2023-04-15T04:43:42;4.60;99.90
52943;DHT22;38809;53.300;6.614;2023-04-15T04:46:07;4.70;99.90
52943;DHT22;38809;53.300;6.614;2023-04-15T04:48:33;4.50;99.90
52943;DHT22;38809;53.300;6.614;2023-04-15T04:50:59;4.40;99.90
52943;DHT22;38809;53.300;6.614;2023-04-15T04:53:24;4.70;99.90
52943;DHT22;38809;53.300;6.614;2023-04-15T04:55:50;4.60;99.90
52943;DHT22;38809;53.300;6.614;2023-04-15T04:58:16;4.70;99.90
52943;DHT22;38809;53.300;6.614;2023-04-15T05:00:42;4.70;99.90
52943;DHT22;38809;53.300;6.614;2023-04-15T05:03:07;5.10;99.90
52943;DHT22;38809;53.300;6.614;2023-04-15T05:05:33;4.80;99.90
52943;DHT22;38809;53.300;6.614;2023-04-15T05:08:01;5.50;99.90
52943;DHT22;38809;53.300;6.614;2023-04-15T05:10:27;5.00;99.90
52943;DHT22;38809;53.300;6.614;2023-04-15T05:12:52;5.00;99.90
52943;DHT22;38809;53.300;6.614;2023-04-15T05:15:18;5.00;99.90
52943;DHT22;38809;53.300;6.614;2023-04-15T05:17:43;5.60;99.90
52943;DHT22;38809;53.300;6.614;2023-04-15T05:20:09;5.70;99.90
52943;DHT22;38809;53.300;6.614;2023-04-15T05:22:36;5.70;99.90
52943;DHT22;38809;53.300;6.614;2023-04-15T05:25:01;6.30;99.90
52943;DHT22;38809;53.300;6.614;2023-04-15T05:27:27;6.50;99.90
52943;DHT22;38809;53.300;6.614;2023-04-15T05:29:52;6.90;99.90
52943;DHT22;38809;53.300;6.614;2023-04-15T05:32:18;7.40;99.90
52943;DHT22;38809;53.300;6.614;2023-04-15T05:34:47;6.80;99.90
52943;DHT22;38809;53.300;6.614;2023-04-15T05:37:12;7.10;99.90
52943;DHT22;38809;53.300;6.614;2023-04-15T05:39:38;6.90;99.90
52943;DHT22;38809;53.300;6.614;2023-04-15T05:42:03;7.00;99.90
52943;DHT22;38809;53.300;6.614;2023-04-15T05:44:30;7.60;99.90
52943;DHT22;38809;53.300;6.614;2023-04-15T05:46:56;5.60;99.90
52943;DHT22;38809;53.300;6.614;2023-04-15T05:49:22;7.20;99.90
52943;DHT22;38809;53.300;6.614;2023-04-15T05:51:48;6.60;99.90
52943;DHT22;38809;53.300;6.614;2023-04-15T05:54:14;6.70;99.90
52943;DHT22;38809;53.300;6.614;2023-04-15T05:56:39;6.60;99.90
52943;DHT22;38809;53.300;6.614;2023-04-15T05:59:05;6.70;99.90
52943;DHT22;38809;53.300;6.614;2023-04-15T06:01:31;7.20;99.90
52943;DHT22;38809;53.300;6.614;2023-04-15T06:03:57;7.60;99.90
52943;DHT22;38809;53.300;6.614;2023-04-15T06:06:23;6.90;99.90
52943;DHT22;38809;53.300;6.614;2023-04-15T06:08:48;7.20;99.90
52943;DHT22;38809;53.300;6.614;2023-04-15T06:11:14;7.10;99.90
52943;DHT22;38809;53.300;6.614;2023-04-15T06:13:39;7.20;99.90
52943;DHT22;38809;53.300;6.614;2023-04-15T06:16:05;7.10;99.90
52943;DHT22;38809;53.300;6.614;2023-04-15T06:18:32;6.90;99.90
52943;DHT22;38809;53.300;6.614;2023-04-15T06:20:57;7.10;99.90
52943;DHT22;38809;53.300;6.614;2023-04-15T06:23:23;7.00;99.90
52943;DHT22;38809;53.300;6.614;2023-04-15T06:25:49;7.10;99.90
52943;DHT22;38809;53.300;6.614;2023-04-15T06:28:14;7.10;99.90
52943;DHT22;38809;53.300;6.614;2023-04-15T06:30:40;7.40;99.90
52943;DHT22;38809;53.300;6.614;2023-04-15T06:33:05;7.60;99.90
52943;DHT22;38809;53.300;6.614;2023-04-15T06:35:31;7.70;99.90
52943;DHT22;38809;53.300;6.614;2023-04-15T06:37:57;7.70;99.90
52943;DHT22;38809;53.300;6.614;2023-04-15T06:40:22;8.00;99.90
52943;DHT22;38809;53.300;6.614;2023-04-15T06:42:48;8.10;99.90
52943;DHT22;38809;53.300;6.614;2023-04-15T06:45:14;8.30;99.90
52943;DHT22;38809;53.300;6.614;2023-04-15T06:47:40;8.50;99.90
52943;DHT22;38809;53.300;6.614;2023-04-15T06:50:06;8.50;99.90
52943;DHT22;38809;53.300;6.614;2023-04-15T06:52:34;8.40;99.90
52943;DHT22;38809;53.300;6.614;2023-04-15T06:55:00;8.60;99.90
52943;DHT22;38809;53.300;6.614;2023-04-15T06:57:26;8.60;99.90
52943;DHT22;38809;53.300;6.614;2023-04-15T06:59:53;8.40;99.90
52943;DHT22;38809;53.300;6.614;2023-04-15T07:02:19;8.40;99.90
52943;DHT22;38809;53.300;6.614;2023-04-15T07:04:45;8.20;99.90
52943;DHT22;38809;53.300;6.614;2023-04-15T07:07:11;8.40;99.90
52943;DHT22;38809;53.300;6.614;2023-04-15T07:09:37;8.20;99.90
52943;DHT22;38809;53.300;6.614;2023-04-15T07:12:03;8.50;99.90
52943;DHT22;38809;53.300;6.614;2023-04-15T07:14:28;8.20;99.90
52943;DHT22;38809;53.300;6.614;2023-04-15T07:16:54;8.40;99.90
52943;DHT22;38809;53.300;6.614;2023-04-15T07:19:20;8.40;99.90
52943;DHT22;38809;53.300;6.614;2023-04-15T07:21:46;8.30;99.90
52943;DHT22;38809;53.300;6.614;2023-04-15T07:24:12;8.20;99.90
52943;DHT22;38809;53.300;6.614;2023-04-15T07:26:41;8.40;99.90
52943;DHT22;38809;53.300;6.614;2023-04-15T07:29:08;8.50;99.90
52943;DHT22;38809;53.300;6.614;2023-04-15T07:31:33;8.40;99.90
52943;DHT22;38809;53.300;6.614;2023-04-15T07:34:01;8.30;99.90
52943;DHT22;38809;53.300;6.614;2023-04-15T07:36:27;8.30;99.90
52943;DHT22;38809;53.300;6.614;2023-04-15T07:38:53;8.30;99.90
52943;DHT22;38809;53.300;6.614;2023-04-15T07:41:20;8.40;99.90
52943;DHT22;38809;53.300;6.614;2023-04-15T07:43:46;8.60;99.90
52943;DHT22;38809;53.300;6.614;2023-04-15T07:46:13;8.50;99.90
52943;DHT22;38809;53.300;6.614;2023-04-15T07:48:39;8.50;99.90
52943;DHT22;38809;53.300;6.614;2023-04-15T07:51:05;8.40;99.90
52943;DHT22;38809;53.300;6.614;2023-04-15T07:53:31;8.40;99.90
52943;DHT22;38809;53.300;6.614;2023-04-15T07:55:57;8.50;99.90
52943;DHT22;38809;53.300;6.614;2023-04-15T07:58:23;8.30;99.90
52943;DHT22;38809;53.300;6.614;2023-04-15T08:00:48;8.20;99.90
52943;DHT22;38809;53.300;6.614;2023-04-15T08:03:14;8.30;99.90
52943;DHT22;38809;53.300;6.614;2023-04-15T08:05:40;8.40;99.90
52943;DHT22;38809;53.300;6.614;2023-04-15T08:08:06;8.30;99.90
52943;DHT22;38809;53.300;6.614;2023-04-15T08:10:32;8.50;99.90
52943;DHT22;38809;53.300;6.614;2023-04-15T08:12:58;8.20;99.90
52943;DHT22;38809;53.300;6.614;2023-04-15T08:15:24;8.30;99.90
52943;DHT22;38809;53.300;6.614;2023-04-15T08:17:49;8.30;99.90
52943;DHT22;38809;53.300;6.614;2023-04-15T08:20:15;8.10;99.90
52943;DHT22;38809;53.300;6.614;2023-04-15T08:22:40;8.40;99.90
52943;DHT22;38809;53.300;6.614;2023-04-15T08:25:07;8.30;99.90
52943;DHT22;38809;53.300;6.614;2023-04-15T08:27:33;8.30;99.90
52943;DHT22;38809;53.300;6.614;2023-04-15T08:29:59;8.30;99.90
52943;DHT22;38809;53.300;6.614;2023-04-15T08:32:24;8.20;99.90
52943;DHT22;38809;53.300;6.614;2023-04-15T08:34:51;8.20;99.90
52943;DHT22;38809;53.300;6.614;2023-04-15T08:37:17;8.20;99.90
52943;DHT22;38809;53.300;6.614;2023-04-15T08:39:43;8.30;99.90
52943;DHT22;38809;53.300;6.614;2023-04-15T08:42:16;8.10;99.90
52943;DHT22;38809;53.300;6.614;2023-04-15T08:44:42;8.30;99.90
52943;DHT22;38809;53.300;6.614;2023-04-15T08:47:09;8.20;99.90
52943;DHT22;38809;53.300;6.614;2023-04-15T08:49:38;8.30;99.90
52943;DHT22;38809;53.300;6.614;2023-04-15T08:52:04;8.30;99.90
52943;DHT22;38809;53.300;6.614;2023-04-15T08:54:30;8.30;99.90
52943;DHT22;38809;53.300;6.614;2023-04-15T08:56:56;8.30;99.90
52943;DHT22;38809;53.300;6.614;2023-04-15T08:59:22;8.20;99.90
52943;DHT22;38809;53.300;6.614;2023-04-15T09:01:49;8.20;99.90
52943;DHT22;38809;53.300;6.614;2023-04-15T09:04:15;8.40;99.90
52943;DHT22;38809;53.300;6.614;2023-04-15T09:06:41;8.40;99.90
52943;DHT22;38809;53.300;6.614;2023-04-15T09:09:07;8.50;99.90
52943;DHT22;38809;53.300;6.614;2023-04-15T09:11:33;8.50;99.90
52943;DHT22;38809;53.300;6.614;2023-04-15T09:13:58;8.70;99.90
52943;DHT22;38809;53.300;6.614;2023-04-15T09:16:24;8.70;99.90
52943;DHT22;38809;53.300;6.614;2023-04-15T09:18:50;8.90;99.90
52943;DHT22;38809;53.300;6.614;2023-04-15T09:21:16;9.00;99.90
52943;DHT22;38809;53.300;6.614;2023-04-15T09:24:03;9.20;99.90
52943;DHT22;38809;53.300;6.614;2023-04-15T09:26:31;9.10;99.90
52943;DHT22;38809;53.300;6.614;2023-04-15T09:29:04;9.00;99.90
52943;DHT22;38809;53.300;6.614;2023-04-15T09:31:31;8.90;99.90
52943;DHT22;38809;53.300;6.614;2023-04-15T09:33:57;9.00;99.90
52943;DHT22;38809;53.300;6.614;2023-04-15T09:36:22;9.00;99.90
52943;DHT22;38809;53.300;6.614;2023-04-15T09:38:55;8.80;99.90
52943;DHT22;38809;53.300;6.614;2023-04-15T09:41:21;8.90;99.90
52943;DHT22;38809;53.300;6.614;2023-04-15T09:43:47;8.90;99.90
52943;DHT22;38809;53.300;6.614;2023-04-15T09:46:13;9.00;99.90
52943;DHT22;38809;53.300;6.614;2023-04-15T09:48:38;9.10;99.90
52943;DHT22;38809;53.300;6.614;2023-04-15T09:51:04;9.00;99.90
52943;DHT22;38809;53.300;6.614;2023-04-15T09:53:33;9.00;99.90
52943;DHT22;38809;53.300;6.614;2023-04-15T09:56:00;9.20;99.90
52943;DHT22;38809;53.300;6.614;2023-04-15T09:58:27;9.10;99.90
52943;DHT22;38809;53.300;6.614;2023-04-15T10:00:54;9.10;99.90
52943;DHT22;38809;53.300;6.614;2023-04-15T10:03:25;9.20;99.90
52943;DHT22;38809;53.300;6.614;2023-04-15T10:05:53;9.00;99.90
52943;DHT22;38809;53.300;6.614;2023-04-15T10:08:20;9.10;99.90
52943;DHT22;38809;53.300;6.614;2023-04-15T10:10:47;9.20;99.90
52943;DHT22;38809;53.300;6.614;2023-04-15T10:13:13;9.10;99.90
52943;DHT22;38809;53.300;6.614;2023-04-15T10:15:42;9.10;99.90
52943;DHT22;38809;53.300;6.614;2023-04-15T10:18:08;9.10;99.90
52943;DHT22;38809;53.300;6.614;2023-04-15T10:20:34;9.20;99.90
52943;DHT22;38809;53.300;6.614;2023-04-15T10:23:01;9.00;99.90
52943;DHT22;38809;53.300;6.614;2023-04-15T10:25:26;9.10;99.90
52943;DHT22;38809;53.300;6.614;2023-04-15T10:27:53;9.00;99.90
52943;DHT22;38809;53.300;6.614;2023-04-15T10:30:19;9.10;99.90
52943;DHT22;38809;53.300;6.614;2023-04-15T10:32:45;9.20;99.90
52943;DHT22;38809;53.300;6.614;2023-04-15T10:35:11;9.30;99.90
52943;DHT22;38809;53.300;6.614;2023-04-15T10:37:37;9.00;99.90
52943;DHT22;38809;53.300;6.614;2023-04-15T10:42:47;9.00;99.90
52943;DHT22;38809;53.300;6.614;2023-04-15T10:45:15;8.90;99.90
52943;DHT22;38809;53.300;6.614;2023-04-15T10:47:42;9.10;99.90
52943;DHT22;38809;53.300;6.614;2023-04-15T10:50:08;9.20;99.90
52943;DHT22;38809;53.300;6.614;2023-04-15T10:52:34;9.20;99.90
52943;DHT22;38809;53.300;6.614;2023-04-15T10:57:37;9.10;99.90
52943;DHT22;38809;53.300;6.614;2023-04-15T11:00:11;9.10;99.90
52943;DHT22;38809;53.300;6.614;2023-04-15T11:02:40;9.20;99.90
52943;DHT22;38809;53.300;6.614;2023-04-15T11:05:06;9.10;99.90
52943;DHT22;38809;53.300;6.614;2023-04-15T11:09:58;9.20;99.90
52943;DHT22;38809;53.300;6.614;2023-04-15T11:12:33;9.40;99.90
52943;DHT22;38809;53.300;6.614;2023-04-15T11:15:00;9.20;99.90
52943;DHT22;38809;53.300;6.614;2023-04-15T11:17:46;9.10;99.90
52943;DHT22;38809;53.300;6.614;2023-04-15T11:20:13;9.20;99.90
52943;DHT22;38809;53.300;6.614;2023-04-15T11:22:45;9.30;99.90
52943;DHT22;38809;53.300;6.614;2023-04-15T11:25:20;9.20;99.90
52943;DHT22;38809;53.300;6.614;2023-04-15T11:27:46;9.20;99.90
52943;DHT22;38809;53.300;6.614;2023-04-15T11:30:22;9.20;99.90
52943;DHT22;38809;53.300;6.614;2023-04-15T11:32:49;9.10;99.90
52943;DHT22;38809;53.300;6.614;2023-04-15T11:35:17;9.20;99.90
52943;DHT22;38809;53.300;6.614;2023-04-15T11:37:44;9.30;99.90
52943;DHT22;38809;53.300;6.614;2023-04-15T11:40:11;9.20;99.90
52943;DHT22;38809;53.300;6.614;2023-04-15T11:42:37;9.00;99.90
52943;DHT22;38809;53.300;6.614;2023-04-15T11:45:14;9.10;99.90
52943;DHT22;38809;53.300;6.614;2023-04-15T11:47:40;9.00;99.90
52943;DHT22;38809;53.300;6.614;2023-04-15T11:50:22;8.80;99.90
52943;DHT22;38809;53.300;6.614;2023-04-15T11:55:19;9.00;99.90
52943;DHT22;38809;53.300;6.614;2023-04-15T11:57:45;8.90;99.90
52943;DHT22;38809;53.300;6.614;2023-04-15T12:00:11;8.90;99.90
52943;DHT22;38809;53.300;6.614;2023-04-15T12:02:38;9.10;99.90
52943;DHT22;38809;53.300;6.614;2023-04-15T12:05:07;9.40;99.90
52943;DHT22;38809;53.300;6.614;2023-04-15T12:07:57;9.10;99.90
52943;DHT22;38809;53.300;6.614;2023-04-15T12:10:26;9.30;99.90
52943;DHT22;38809;53.300;6.614;2023-04-15T12:12:51;9.20;99.90
52943;DHT22;38809;53.300;6.614;2023-04-15T12:15:21;9.30;99.90
52943;DHT22;38809;53.300;6.614;2023-04-15T12:17:47;9.20;99.90
52943;DHT22;38809;53.300;6.614;2023-04-15T12:20:12;9.30;99.90
52943;DHT22;38809;53.300;6.614;2023-04-15T12:22:38;9.20;99.90
52943;DHT22;38809;53.300;6.614;2023-04-15T12:25:04;9.10;99.90
52943;DHT22;38809;53.300;6.614;2023-04-15T12:27:30;9.40;99.90
52943;DHT22;38809;53.300;6.614;2023-04-15T12:30:05;9.20;99.90
52943;DHT22;38809;53.300;6.614;2023-04-15T12:32:34;9.20;99.90
52943;DHT22;38809;53.300;6.614;2023-04-15T12:35:00;8.90;99.90
52943;DHT22;38809;53.300;6.614;2023-04-15T12:37:26;9.20;99.90
52943;DHT22;38809;53.300;6.614;2023-04-15T12:39:51;9.10;99.90
52943;DHT22;38809;53.300;6.614;2023-04-15T12:42:18;9.00;99.90
52943;DHT22;38809;53.300;6.614;2023-04-15T12:44:44;9.10;99.90
52943;DHT22;38809;53.300;6.614;2023-04-15T12:47:10;8.90;99.90
52943;DHT22;38809;53.300;6.614;2023-04-15T12:49:36;9.10;99.90
52943;DHT22;38809;53.300;6.614;2023-04-15T12:52:02;8.70;99.90
52943;DHT22;38809;53.300;6.614;2023-04-15T12:54:28;8.80;99.90
52943;DHT22;38809;53.300;6.614;2023-04-15T12:56:54;8.80;99.90
52943;DHT22;38809;53.300;6.614;2023-04-15T12:59:20;8.60;99.90
52943;DHT22;38809;53.300;6.614;2023-04-15T13:01:48;8.80;99.90
52943;DHT22;38809;53.300;6.614;2023-04-15T13:04:14;8.50;99.90
52943;DHT22;38809;53.300;6.614;2023-04-15T13:06:39;8.60;99.90
52943;DHT22;38809;53.300;6.614;2023-04-15T13:09:05;9.00;99.90
52943;DHT22;38809;53.300;6.614;2023-04-15T13:11:31;8.70;99.90
52943;DHT22;38809;53.300;6.614;2023-04-15T13:14:04;8.50;99.90
52943;DHT22;38809;53.300;6.614;2023-04-15T13:16:30;8.80;99.90
52943;DHT22;38809;53.300;6.614;2023-04-15T13:18:56;8.60;99.90
52943;DHT22;38809;53.300;6.614;2023-04-15T13:21:22;8.70;99.90
52943;DHT22;38809;53.300;6.614;2023-04-15T13:23:48;8.70;99.90
52943;DHT22;38809;53.300;6.614;2023-04-15T13:26:14;8.60;99.90
52943;DHT22;38809;53.300;6.614;2023-04-15T13:28:40;8.90;99.90
52943;DHT22;38809;53.300;6.614;2023-04-15T13:31:06;8.60;99.90
52943;DHT22;38809;53.300;6.614;2023-04-15T13:33:31;8.40;99.90
52943;DHT22;38809;53.300;6.614;2023-04-15T13:35:57;8.60;99.90
52943;DHT22;38809;53.300;6.614;2023-04-15T13:38:23;8.40;99.90
52943;DHT22;38809;53.300;6.614;2023-04-15T13:40:49;8.40;99.90
52943;DHT22;38809;53.300;6.614;2023-04-15T13:43:15;8.70;99.90
52943;DHT22;38809;53.300;6.614;2023-04-15T13:45:42;8.80;99.90
52943;DHT22;38809;53.300;6.614;2023-04-15T13:48:08;8.70;99.90
52943;DHT22;38809;53.300;6.614;2023-04-15T13:50:33;8.80;99.90
52943;DHT22;38809;53.300;6.614;2023-04-15T13:52:59;8.60;99.90
52943;DHT22;38809;53.300;6.614;2023-04-15T13:55:25;8.40;99.90
52943;DHT22;38809;53.300;6.614;2023-04-15T13:57:51;8.80;99.90
52943;DHT22;38809;53.300;6.614;2023-04-15T14:00:16;8.70;99.90
52943;DHT22;38809;53.300;6.614;2023-04-15T14:02:42;8.50;99.90
52943;DHT22;38809;53.300;6.614;2023-04-15T14:05:08;8.70;99.90
52943;DHT22;38809;53.300;6.614;2023-04-15T14:07:33;8.50;99.90
52943;DHT22;38809;53.300;6.614;2023-04-15T14:09:59;8.50;99.90
52943;DHT22;38809;53.300;6.614;2023-04-15T14:12:25;8.60;99.90
52943;DHT22;38809;53.300;6.614;2023-04-15T14:14:50;8.60;99.90
52943;DHT22;38809;53.300;6.614;2023-04-15T14:17:16;8.60;99.90
52943;DHT22;38809;53.300;6.614;2023-04-15T14:19:41;8.50;99.90
52943;DHT22;38809;53.300;6.614;2023-04-15T14:22:07;8.60;99.90
52943;DHT22;38809;53.300;6.614;2023-04-15T14:24:32;8.50;99.90
52943;DHT22;38809;53.300;6.614;2023-04-15T14:26:58;8.70;99.90
52943;DHT22;38809;53.300;6.614;2023-04-15T14:29:24;8.30;99.90
52943;DHT22;38809;53.300;6.614;2023-04-15T14:31:49;8.30;99.90
52943;DHT22;38809;53.300;6.614;2023-04-15T14:34:15;8.50;99.90
52943;DHT22;38809;53.300;6.614;2023-04-15T14:36:41;8.40;99.90
52943;DHT22;38809;53.300;6.614;2023-04-15T14:39:07;8.50;99.90
52943;DHT22;38809;53.300;6.614;2023-04-15T14:41:33;8.60;99.90
52943;DHT22;38809;53.300;6.614;2023-04-15T14:43:59;8.50;99.90
52943;DHT22;38809;53.300;6.614;2023-04-15T14:46:25;8.40;99.90
52943;DHT22;38809;53.300;6.614;2023-04-15T14:48:51;8.50;99.90
52943;DHT22;38809;53.300;6.614;2023-04-15T14:51:17;8.40;99.90
52943;DHT22;38809;53.300;6.614;2023-04-15T14:53:42;8.20;99.90
52943;DHT22;38809;53.300;6.614;2023-04-15T14:56:08;8.30;99.90
52943;DHT22;38809;53.300;6.614;2023-04-15T14:58:34;8.40;99.90
52943;DHT22;38809;53.300;6.614;2023-04-15T15:01:00;8.40;99.90
52943;DHT22;38809;53.300;6.614;2023-04-15T15:03:27;8.50;99.90
52943;DHT22;38809;53.300;6.614;2023-04-15T15:05:52;8.40;99.90
52943;DHT22;38809;53.300;6.614;2023-04-15T15:08:18;8.50;99.90
52943;DHT22;38809;53.300;6.614;2023-04-15T15:10:44;8.20;99.90
52943;DHT22;38809;53.300;6.614;2023-04-15T15:13:10;8.40;99.90
52943;DHT22;38809;53.300;6.614;2023-04-15T15:15:36;8.40;99.90
52943;DHT22;38809;53.300;6.614;2023-04-15T15:18:02;8.20;99.90
52943;DHT22;38809;53.300;6.614;2023-04-15T15:20:28;8.10;99.90
52943;DHT22;38809;53.300;6.614;2023-04-15T15:22:54;8.20;99.90
52943;DHT22;38809;53.300;6.614;2023-04-15T15:25:20;8.30;99.90
52943;DHT22;38809;53.300;6.614;2023-04-15T15:27:46;8.30;99.90
52943;DHT22;38809;53.300;6.614;2023-04-15T15:30:11;8.30;99.90
52943;DHT22;38809;53.300;6.614;2023-04-15T15:32:40;8.20;99.90
52943;DHT22;38809;53.300;6.614;2023-04-15T15:35:06;8.20;99.90
52943;DHT22;38809;53.300;6.614;2023-04-15T15:37:32;8.40;99.90
52943;DHT22;38809;53.300;6.614;2023-04-15T15:39:58;8.20;99.90
52943;DHT22;38809;53.300;6.614;2023-04-15T15:42:25;8.20;99.90
52943;DHT22;38809;53.300;6.614;2023-04-15T15:44:50;8.20;99.90
52943;DHT22;38809;53.300;6.614;2023-04-15T15:47:20;8.20;99.90
52943;DHT22;38809;53.300;6.614;2023-04-15T15:49:46;8.30;99.90